sensor_id;sensor_type;location;lat;lon;timestamp;pressure;altitude;pressure_sealevel;temperature
76713;BMP280;65640;43.154;25.658;2023-09-07T00:01:26;101171.84;;;19.55
76713;BMP280;65640;43.154;25.658;2023-09-07T00:03:51;101166.66;;;19.76
76713;BMP280;65640;43.154;25.658;2023-09-07T00:06:17;101169.50;;;19.62
76713;BMP280;65640;43.154;25.658;2023-09-07T00:08:43;101171.03;;;19.63
76713;BMP280;65640;43.154;25.658;2023-09-07T00:11:09;101180.28;;;19.40
76713;BMP280;65640;43.154;25.658;2023-09-07T00:13:37;101175.94;;;19.27
76713;BMP280;65640;43.154;25.658;2023-09-07T00:16:04;101181.88;;;19.15
76713;BMP280;65640;43.154;25.658;2023-09-07T00:18:32;101180.47;;;19.35
76713;BMP280;65640;43.154;25.658;2023-09-07T00:20:59;101182.50;;;19.29
76713;BMP280;65640;43.154;25.658;2023-09-07T00:23:25;101187.16;;;19.24
76713;BMP280;65640;43.154;25.658;2023-09-07T00:25:50;101187.63;;;19.17
76713;BMP280;65640;43.154;25.658;2023-09-07T00:28:15;101184.84;;;19.14
76713;BMP280;65640;43.154;25.658;2023-09-07T00:30:41;101190.75;;;19.11
76713;BMP280;65640;43.154;25.658;2023-09-07T00:33:07;101191.69;;;19.15
76713;BMP280;65640;43.154;25.658;2023-09-07T00:35:32;101181.53;;;19.17
76713;BMP280;65640;43.154;25.658;2023-09-07T00:37:58;101186.84;;;19.25
76713;BMP280;65640;43.154;25.658;2023-09-07T00:40:23;101185.63;;;19.23
76713;BMP280;65640;43.154;25.658;2023-09-07T00:42:50;101184.34;;;19.03
76713;BMP280;65640;43.154;25.658;2023-09-07T00:45:16;101188.88;;;19.03
76713;BMP280;65640;43.154;25.658;2023-09-07T00:47:41;101192.59;;;18.84
76713;BMP280;65640;43.154;25.658;2023-09-07T00:50:07;101196.81;;;18.85
76713;BMP280;65640;43.154;25.658;2023-09-07T00:52:34;101194.13;;;18.68
76713;BMP280;65640;43.154;25.658;2023-09-07T00:55:01;101201.56;;;18.58
76713;BMP280;65640;43.154;25.658;2023-09-07T00:57:27;101195.84;;;18.73
76713;BMP280;65640;43.154;25.658;2023-09-07T00:59:54;101197.47;;;19.00
76713;BMP280;65640;43.154;25.658;2023-09-07T01:02:19;101198.53;;;18.99
76713;BMP280;65640;43.154;25.658;2023-09-07T01:04:45;101201.84;;;19.04
76713;BMP280;65640;43.154;25.658;2023-09-07T01:07:17;101205.41;;;18.82
76713;BMP280;65640;43.154;25.658;2023-09-07T01:09:44;101196.13;;;18.63
76713;BMP280;65640;43.154;25.658;2023-09-07T01:12:15;101196.78;;;18.68
76713;BMP280;65640;43.154;25.658;2023-09-07T01:14:41;101193.69;;;18.83
76713;BMP280;65640;43.154;25.658;2023-09-07T01:17:06;101190.56;;;18.99
76713;BMP280;65640;43.154;25.658;2023-09-07T01:19:32;101189.00;;;18.98
76713;BMP280;65640;43.154;25.658;2023-09-07T01:21:59;101181.69;;;18.86
76713;BMP280;65640;43.154;25.658;2023-09-07T01:24:25;101175.28;;;18.96
76713;BMP280;65640;43.154;25.658;2023-09-07T01:26:52;101166.84;;;18.85
76713;BMP280;65640;43.154;25.658;2023-09-07T01:29:17;101175.09;;;18.83
76713;BMP280;65640;43.154;25.658;2023-09-07T01:31:43;101175.84;;;18.75
76713;BMP280;65640;43.154;25.658;2023-09-07T01:34:08;101170.38;;;18.72
76713;BMP280;65640;43.154;25.658;2023-09-07T01:36:34;101164.69;;;18.87
76713;BMP280;65640;43.154;25.658;2023-09-07T01:39:00;101167.13;;;18.83
76713;BMP280;65640;43.154;25.658;2023-09-07T01:41:26;101170.59;;;18.92
76713;BMP280;65640;43.154;25.658;2023-09-07T01:43:52;101163.41;;;18.93
76713;BMP280;65640;43.154;25.658;2023-09-07T01:46:17;101173.25;;;18.92
76713;BMP280;65640;43.154;25.658;2023-09-07T01:48:43;101174.22;;;19.05
76713;BMP280;65640;43.154;25.658;2023-09-07T01:51:08;101181.84;;;19.07
76713;BMP280;65640;43.154;25.658;2023-09-07T01:53:34;101178.25;;;19.20
76713;BMP280;65640;43.154;25.658;2023-09-07T01:55:59;101178.75;;;19.13
76713;BMP280;65640;43.154;25.658;2023-09-07T01:58:25;101181.22;;;19.01
76713;BMP280;65640;43.154;25.658;2023-09-07T02:00:53;101188.22;;;18.88
76713;BMP280;65640;43.154;25.658;2023-09-07T02:03:21;101181.97;;;18.84
76713;BMP280;65640;43.154;25.658;2023-09-07T02:05:47;101185.09;;;18.78
76713;BMP280;65640;43.154;25.658;2023-09-07T02:08:12;101183.00;;;18.58
76713;BMP280;65640;43.154;25.658;2023-09-07T02:10:38;101177.53;;;18.54
76713;BMP280;65640;43.154;25.658;2023-09-07T02:13:04;101179.97;;;18.51
76713;BMP280;65640;43.154;25.658;2023-09-07T02:15:29;101180.63;;;18.56
76713;BMP280;65640;43.154;25.658;2023-09-07T02:17:55;101184.69;;;18.45
76713;BMP280;65640;43.154;25.658;2023-09-07T02:20:21;101182.94;;;18.40
76713;BMP280;65640;43.154;25.658;2023-09-07T02:22:46;101186.91;;;18.60
76713;BMP280;65640;43.154;25.658;2023-09-07T02:25:12;101187.09;;;18.72
76713;BMP280;65640;43.154;25.658;2023-09-07T02:27:37;101183.19;;;18.78
76713;BMP280;65640;43.154;25.658;2023-09-07T02:30:03;101184.91;;;18.66
76713;BMP280;65640;43.154;25.658;2023-09-07T02:32:29;101176.03;;;18.79
76713;BMP280;65640;43.154;25.658;2023-09-07T02:34:54;101181.22;;;18.92
76713;BMP280;65640;43.154;25.658;2023-09-07T02:37:20;101185.84;;;18.70
76713;BMP280;65640;43.154;25.658;2023-09-07T02:39:45;101178.81;;;18.65
76713;BMP280;65640;43.154;25.658;2023-09-07T02:42:10;101175.63;;;18.46
76713;BMP280;65640;43.154;25.658;2023-09-07T02:44:36;101180.38;;;18.66
76713;BMP280;65640;43.154;25.658;2023-09-07T02:47:03;101178.97;;;18.69
76713;BMP280;65640;43.154;25.658;2023-09-07T02:49:28;101183.03;;;18.66
76713;BMP280;65640;43.154;25.658;2023-09-07T02:51:55;101183.16;;;18.61
76713;BMP280;65640;43.154;25.658;2023-09-07T02:54:20;101187.19;;;18.50
76713;BMP280;65640;43.154;25.658;2023-09-07T02:56:46;101180.44;;;18.35
76713;BMP280;65640;43.154;25.658;2023-09-07T02:59:11;101187.47;;;18.40
76713;BMP280;65640;43.154;25.658;2023-09-07T03:01:38;101191.88;;;18.53
76713;BMP280;65640;43.154;25.658;2023-09-07T03:04:04;101188.13;;;18.54
76713;BMP280;65640;43.154;25.658;2023-09-07T03:06:30;101190.28;;;18.52
76713;BMP280;65640;43.154;25.658;2023-09-07T03:08:55;101195.06;;;18.33
76713;BMP280;65640;43.154;25.658;2023-09-07T03:11:21;101193.03;;;18.30
76713;BMP280;65640;43.154;25.658;2023-09-07T03:13:47;101194.28;;;18.32
76713;BMP280;65640;43.154;25.658;2023-09-07T03:16:12;101197.59;;;18.38
76713;BMP280;65640;43.154;25.658;2023-09-07T03:18:38;101199.44;;;18.37
76713;BMP280;65640;43.154;25.658;2023-09-07T03:21:03;101195.44;;;18.40
76713;BMP280;65640;43.154;25.658;2023-09-07T03:23:29;101204.06;;;18.54
76713;BMP280;65640;43.154;25.658;2023-09-07T03:25:56;101207.28;;;18.42
76713;BMP280;65640;43.154;25.658;2023-09-07T03:28:22;101206.16;;;18.35
76713;BMP280;65640;43.154;25.658;2023-09-07T03:30:48;101211.47;;;18.35
76713;BMP280;65640;43.154;25.658;2023-09-07T03:33:13;101214.22;;;18.30
76713;BMP280;65640;43.154;25.658;2023-09-07T03:35:39;101218.13;;;18.24
76713;BMP280;65640;43.154;25.658;2023-09-07T03:38:06;101220.59;;;18.20
76713;BMP280;65640;43.154;25.658;2023-09-07T03:40:31;101212.75;;;18.15
76713;BMP280;65640;43.154;25.658;2023-09-07T03:42:56;101223.75;;;18.31
76713;BMP280;65640;43.154;25.658;2023-09-07T03:45:22;101220.16;;;18.27
76713;BMP280;65640;43.154;25.658;2023-09-07T03:47:47;101221.56;;;18.24
76713;BMP280;65640;43.154;25.658;2023-09-07T03:50:13;101225.91;;;18.20
76713;BMP280;65640;43.154;25.658;2023-09-07T03:52:38;101225.38;;;18.40
76713;BMP280;65640;43.154;25.658;2023-09-07T03:55:04;101226.19;;;18.50
76713;BMP280;65640;43.154;25.658;2023-09-07T03:57:29;101232.09;;;18.47
76713;BMP280;65640;43.154;25.658;2023-09-07T03:59:56;101234.13;;;18.50
76713;BMP280;65640;43.154;25.658;2023-09-07T04:02:22;101229.97;;;18.57
76713;BMP280;65640;43.154;25.658;2023-09-07T04:04:49;101231.81;;;18.48
76713;BMP280;65640;43.154;25.658;2023-09-07T04:07:15;101237.88;;;18.49
76713;BMP280;65640;43.154;25.658;2023-09-07T04:09:41;101243.97;;;18.49
76713;BMP280;65640;43.154;25.658;2023-09-07T04:12:07;101251.47;;;18.47
76713;BMP280;65640;43.154;25.658;2023-09-07T04:14:32;101246.75;;;18.44
76713;BMP280;65640;43.154;25.658;2023-09-07T04:16:58;101248.19;;;18.50
76713;BMP280;65640;43.154;25.658;2023-09-07T04:19:24;101250.38;;;18.57
76713;BMP280;65640;43.154;25.658;2023-09-07T04:21:49;101251.84;;;18.71
76713;BMP280;65640;43.154;25.658;2023-09-07T04:24:15;101261.84;;;18.74
76713;BMP280;65640;43.154;25.658;2023-09-07T04:26:41;101252.81;;;18.75
76713;BMP280;65640;43.154;25.658;2023-09-07T04:29:07;101252.53;;;18.85
76713;BMP280;65640;43.154;25.658;2023-09-07T04:31:33;101255.50;;;18.84
76713;BMP280;65640;43.154;25.658;2023-09-07T04:33:58;101254.03;;;18.69
76713;BMP280;65640;43.154;25.658;2023-09-07T04:36:23;101256.25;;;18.76
76713;BMP280;65640;43.154;25.658;2023-09-07T04:38:49;101254.56;;;18.88
76713;BMP280;65640;43.154;25.658;2023-09-07T04:41:14;101260.38;;;18.90
76713;BMP280;65640;43.154;25.658;2023-09-07T04:43:41;101263.94;;;18.94
76713;BMP280;65640;43.154;25.658;2023-09-07T04:46:10;101256.97;;;19.07
76713;BMP280;65640;43.154;25.658;2023-09-07T04:48:36;101264.63;;;19.17
76713;BMP280;65640;43.154;25.658;2023-09-07T04:51:03;101270.28;;;19.33
76713;BMP280;65640;43.154;25.658;2023-09-07T04:53:31;101267.31;;;19.26
76713;BMP280;65640;43.154;25.658;2023-09-07T04:55:57;101269.19;;;19.25
76713;BMP280;65640;43.154;25.658;2023-09-07T04:58:23;101272.94;;;19.50
76713;BMP280;65640;43.154;25.658;2023-09-07T05:00:49;101265.94;;;19.63
76713;BMP280;65640;43.154;25.658;2023-09-07T05:03:14;101267.81;;;19.71
76713;BMP280;65640;43.154;25.658;2023-09-07T05:05:41;101273.56;;;19.64
76713;BMP280;65640;43.154;25.658;2023-09-07T05:08:15;101268.72;;;19.83
76713;BMP280;65640;43.154;25.658;2023-09-07T05:10:41;101270.28;;;19.93
76713;BMP280;65640;43.154;25.658;2023-09-07T05:13:07;101275.91;;;20.00
76713;BMP280;65640;43.154;25.658;2023-09-07T05:15:32;101278.03;;;20.15
76713;BMP280;65640;43.154;25.658;2023-09-07T05:17:58;101276.66;;;20.18
76713;BMP280;65640;43.154;25.658;2023-09-07T05:20:23;101273.84;;;20.23
76713;BMP280;65640;43.154;25.658;2023-09-07T05:22:48;101278.63;;;20.29
76713;BMP280;65640;43.154;25.658;2023-09-07T05:25:14;101285.22;;;20.23
76713;BMP280;65640;43.154;25.658;2023-09-07T05:27:40;101280.50;;;20.37
76713;BMP280;65640;43.154;25.658;2023-09-07T05:30:06;101281.84;;;20.52
76713;BMP280;65640;43.154;25.658;2023-09-07T05:32:32;101280.56;;;20.58
76713;BMP280;65640;43.154;25.658;2023-09-07T05:34:57;101274.16;;;20.59
76713;BMP280;65640;43.154;25.658;2023-09-07T05:37:23;101277.03;;;20.75
76713;BMP280;65640;43.154;25.658;2023-09-07T05:39:48;101277.28;;;20.90
76713;BMP280;65640;43.154;25.658;2023-09-07T05:42:14;101284.19;;;21.12
76713;BMP280;65640;43.154;25.658;2023-09-07T05:44:39;101280.38;;;21.22
76713;BMP280;65640;43.154;25.658;2023-09-07T05:47:05;101273.81;;;21.40
76713;BMP280;65640;43.154;25.658;2023-09-07T05:49:30;101277.31;;;21.53
76713;BMP280;65640;43.154;25.658;2023-09-07T05:51:56;101278.56;;;21.67
76713;BMP280;65640;43.154;25.658;2023-09-07T05:54:22;101279.22;;;21.85
76713;BMP280;65640;43.154;25.658;2023-09-07T05:56:47;101283.97;;;21.79
76713;BMP280;65640;43.154;25.658;2023-09-07T05:59:12;101278.84;;;21.74
76713;BMP280;65640;43.154;25.658;2023-09-07T06:01:38;101279.03;;;21.69
76713;BMP280;65640;43.154;25.658;2023-09-07T06:04:04;101280.59;;;21.70
76713;BMP280;65640;43.154;25.658;2023-09-07T06:06:29;101281.00;;;21.93
76713;BMP280;65640;43.154;25.658;2023-09-07T06:08:55;101285.59;;;22.17
76713;BMP280;65640;43.154;25.658;2023-09-07T06:11:20;101282.28;;;22.32
76713;BMP280;65640;43.154;25.658;2023-09-07T06:13:45;101280.50;;;22.48
76713;BMP280;65640;43.154;25.658;2023-09-07T06:16:12;101267.38;;;22.55
76713;BMP280;65640;43.154;25.658;2023-09-07T06:18:37;101268.59;;;22.58
76713;BMP280;65640;43.154;25.658;2023-09-07T06:21:03;101275.63;;;22.62
76713;BMP280;65640;43.154;25.658;2023-09-07T06:23:29;101275.50;;;22.59
76713;BMP280;65640;43.154;25.658;2023-09-07T06:25:55;101277.16;;;22.75
76713;BMP280;65640;43.154;25.658;2023-09-07T06:28:20;101276.25;;;22.83
76713;BMP280;65640;43.154;25.658;2023-09-07T06:30:46;101277.34;;;22.94
76713;BMP280;65640;43.154;25.658;2023-09-07T06:33:11;101274.44;;;23.12
76713;BMP280;65640;43.154;25.658;2023-09-07T06:35:37;101278.97;;;23.11
76713;BMP280;65640;43.154;25.658;2023-09-07T06:38:03;101280.19;;;23.14
76713;BMP280;65640;43.154;25.658;2023-09-07T06:40:28;101287.09;;;23.15
76713;BMP280;65640;43.154;25.658;2023-09-07T06:42:54;101291.28;;;23.28
76713;BMP280;65640;43.154;25.658;2023-09-07T06:45:19;101286.19;;;23.50
76713;BMP280;65640;43.154;25.658;2023-09-07T06:47:44;101291.19;;;23.68
76713;BMP280;65640;43.154;25.658;2023-09-07T06:50:10;101288.69;;;23.87
76713;BMP280;65640;43.154;25.658;2023-09-07T06:52:35;101286.44;;;24.04
76713;BMP280;65640;43.154;25.658;2023-09-07T06:55:01;101288.41;;;24.07
76713;BMP280;65640;43.154;25.658;2023-09-07T06:57:26;101284.19;;;24.06
76713;BMP280;65640;43.154;25.658;2023-09-07T06:59:52;101292.91;;;24.03
76713;BMP280;65640;43.154;25.658;2023-09-07T07:02:17;101285.31;;;24.05
76713;BMP280;65640;43.154;25.658;2023-09-07T07:04:43;101283.06;;;24.07
76713;BMP280;65640;43.154;25.658;2023-09-07T07:07:10;101283.84;;;24.24
76713;BMP280;65640;43.154;25.658;2023-09-07T07:09:36;101280.63;;;24.18
76713;BMP280;65640;43.154;25.658;2023-09-07T07:12:02;101283.25;;;24.30
76713;BMP280;65640;43.154;25.658;2023-09-07T07:14:27;101283.28;;;24.49
76713;BMP280;65640;43.154;25.658;2023-09-07T07:16:53;101277.88;;;24.65
76713;BMP280;65640;43.154;25.658;2023-09-07T07:19:18;101281.69;;;24.64
76713;BMP280;65640;43.154;25.658;2023-09-07T07:21:44;101281.59;;;24.76
76713;BMP280;65640;43.154;25.658;2023-09-07T07:24:10;101284.19;;;24.73
76713;BMP280;65640;43.154;25.658;2023-09-07T07:26:35;101285.22;;;24.87
76713;BMP280;65640;43.154;25.658;2023-09-07T07:29:02;101287.06;;;25.02
76713;BMP280;65640;43.154;25.658;2023-09-07T07:31:28;101286.78;;;25.27
76713;BMP280;65640;43.154;25.658;2023-09-07T07:33:54;101281.97;;;25.36
76713;BMP280;65640;43.154;25.658;2023-09-07T07:36:20;101285.53;;;25.40
76713;BMP280;65640;43.154;25.658;2023-09-07T07:38:46;101285.25;;;25.45
76713;BMP280;65640;43.154;25.658;2023-09-07T07:41:12;101279.56;;;25.50
76713;BMP280;65640;43.154;25.658;2023-09-07T07:43:37;101283.94;;;25.58
76713;BMP280;65640;43.154;25.658;2023-09-07T07:46:02;101275.19;;;25.61
76713;BMP280;65640;43.154;25.658;2023-09-07T07:48:28;101269.25;;;25.74
76713;BMP280;65640;43.154;25.658;2023-09-07T07:50:56;101273.66;;;25.86
76713;BMP280;65640;43.154;25.658;2023-09-07T07:53:21;101265.00;;;25.96
76713;BMP280;65640;43.154;25.658;2023-09-07T07:55:46;101266.91;;;25.96
76713;BMP280;65640;43.154;25.658;2023-09-07T07:58:14;101260.41;;;25.97
76713;BMP280;65640;43.154;25.658;2023-09-07T08:00:39;101258.69;;;26.08
76713;BMP280;65640;43.154;25.658;2023-09-07T08:03:08;101258.50;;;26.23
76713;BMP280;65640;43.154;25.658;2023-09-07T08:05:34;101257.13;;;26.33
76713;BMP280;65640;43.154;25.658;2023-09-07T08:08:00;101251.78;;;26.37
76713;BMP280;65640;43.154;25.658;2023-09-07T08:10:25;101249.41;;;26.31
76713;BMP280;65640;43.154;25.658;2023-09-07T08:12:54;101244.41;;;26.30
76713;BMP280;65640;43.154;25.658;2023-09-07T08:15:20;101243.25;;;26.61
76713;BMP280;65640;43.154;25.658;2023-09-07T08:17:47;101234.16;;;26.69
76713;BMP280;65640;43.154;25.658;2023-09-07T08:20:13;101244.94;;;26.43
76713;BMP280;65640;43.154;25.658;2023-09-07T08:22:39;101238.81;;;26.42
76713;BMP280;65640;43.154;25.658;2023-09-07T08:25:08;101240.13;;;26.25
76713;BMP280;65640;43.154;25.658;2023-09-07T08:27:33;101237.41;;;26.52
76713;BMP280;65640;43.154;25.658;2023-09-07T08:29:59;101235.22;;;26.94
76713;BMP280;65640;43.154;25.658;2023-09-07T08:32:24;101238.44;;;27.10
76713;BMP280;65640;43.154;25.658;2023-09-07T08:34:50;101237.16;;;26.97
76713;BMP280;65640;43.154;25.658;2023-09-07T08:37:15;101235.13;;;26.87
76713;BMP280;65640;43.154;25.658;2023-09-07T08:39:41;101237.66;;;27.10
76713;BMP280;65640;43.154;25.658;2023-09-07T08:42:07;101237.78;;;27.20
76713;BMP280;65640;43.154;25.658;2023-09-07T08:44:32;101234.81;;;27.32
76713;BMP280;65640;43.154;25.658;2023-09-07T08:46:59;101230.59;;;27.35
76713;BMP280;65640;43.154;25.658;2023-09-07T08:49:26;101228.16;;;27.19
76713;BMP280;65640;43.154;25.658;2023-09-07T08:51:52;101224.00;;;27.29
76713;BMP280;65640;43.154;25.658;2023-09-07T08:54:19;101221.56;;;27.57
76713;BMP280;65640;43.154;25.658;2023-09-07T08:56:46;101220.22;;;27.84
76713;BMP280;65640;43.154;25.658;2023-09-07T08:59:12;101216.47;;;28.03
76713;BMP280;65640;43.154;25.658;2023-09-07T09:01:37;101218.81;;;28.15
76713;BMP280;65640;43.154;25.658;2023-09-07T09:04:03;101218.84;;;28.11
76713;BMP280;65640;43.154;25.658;2023-09-07T09:06:28;101215.75;;;28.17
76713;BMP280;65640;43.154;25.658;2023-09-07T09:08:57;101218.13;;;28.25
76713;BMP280;65640;43.154;25.658;2023-09-07T09:11:24;101218.94;;;28.40
76713;BMP280;65640;43.154;25.658;2023-09-07T09:13:51;101212.75;;;28.32
76713;BMP280;65640;43.154;25.658;2023-09-07T09:16:17;101211.63;;;28.37
76713;BMP280;65640;43.154;25.658;2023-09-07T09:21:17;101210.16;;;28.60
76713;BMP280;65640;43.154;25.658;2023-09-07T09:23:43;101205.16;;;28.55
76713;BMP280;65640;43.154;25.658;2023-09-07T09:26:08;101201.22;;;28.35
76713;BMP280;65640;43.154;25.658;2023-09-07T09:28:34;101200.13;;;28.61
76713;BMP280;65640;43.154;25.658;2023-09-07T09:31:00;101200.53;;;28.59
76713;BMP280;65640;43.154;25.658;2023-09-07T09:33:26;101191.66;;;28.62
76713;BMP280;65640;43.154;25.658;2023-09-07T09:35:53;101194.03;;;28.96
76713;BMP280;65640;43.154;25.658;2023-09-07T09:38:19;101192.91;;;28.97
76713;BMP280;65640;43.154;25.658;2023-09-07T09:40:45;101189.81;;;28.98
76713;BMP280;65640;43.154;25.658;2023-09-07T09:43:11;101184.41;;;29.26
76713;BMP280;65640;43.154;25.658;2023-09-07T09:45:37;101191.34;;;29.24
76713;BMP280;65640;43.154;25.658;2023-09-07T09:48:04;101185.16;;;29.27
76713;BMP280;65640;43.154;25.658;2023-09-07T09:50:30;101175.91;;;29.35
76713;BMP280;65640;43.154;25.658;2023-09-07T09:52:56;101181.31;;;29.42
76713;BMP280;65640;43.154;25.658;2023-09-07T09:55:23;101173.53;;;29.65
76713;BMP280;65640;43.154;25.658;2023-09-07T09:57:49;101168.91;;;29.62
76713;BMP280;65640;43.154;25.658;2023-09-07T10:00:15;101169.94;;;30.00
76713;BMP280;65640;43.154;25.658;2023-09-07T10:02:50;101167.38;;;29.61
76713;BMP280;65640;43.154;25.658;2023-09-07T10:05:16;101159.34;;;29.19
76713;BMP280;65640;43.154;25.658;2023-09-07T10:07:43;101153.94;;;29.44
76713;BMP280;65640;43.154;25.658;2023-09-07T10:10:12;101153.41;;;29.80
76713;BMP280;65640;43.154;25.658;2023-09-07T10:12:45;101154.50;;;29.97
76713;BMP280;65640;43.154;25.658;2023-09-07T10:15:40;101145.69;;;29.89
76713;BMP280;65640;43.154;25.658;2023-09-07T10:18:15;101147.31;;;29.62
76713;BMP280;65640;43.154;25.658;2023-09-07T10:20:57;101152.75;;;29.27
76713;BMP280;65640;43.154;25.658;2023-09-07T10:26:02;101141.53;;;29.53
76713;BMP280;65640;43.154;25.658;2023-09-07T10:28:29;101133.16;;;29.23
76713;BMP280;65640;43.154;25.658;2023-09-07T10:31:03;101125.84;;;29.02
76713;BMP280;65640;43.154;25.658;2023-09-07T10:33:30;101131.16;;;29.45
76713;BMP280;65640;43.154;25.658;2023-09-07T10:35:56;101122.53;;;29.88
76713;BMP280;65640;43.154;25.658;2023-09-07T10:38:22;101117.31;;;30.22
76713;BMP280;65640;43.154;25.658;2023-09-07T10:40:48;101108.22;;;30.53
76713;BMP280;65640;43.154;25.658;2023-09-07T10:43:14;101107.44;;;30.56
76713;BMP280;65640;43.154;25.658;2023-09-07T10:45:43;101107.91;;;30.41
76713;BMP280;65640;43.154;25.658;2023-09-07T10:48:10;101097.75;;;30.59
76713;BMP280;65640;43.154;25.658;2023-09-07T10:50:46;101100.66;;;30.82
76713;BMP280;65640;43.154;25.658;2023-09-07T10:53:13;101100.72;;;31.12
76713;BMP280;65640;43.154;25.658;2023-09-07T10:55:41;101101.25;;;31.30
76713;BMP280;65640;43.154;25.658;2023-09-07T10:58:10;101095.16;;;31.57
76713;BMP280;65640;43.154;25.658;2023-09-07T11:00:36;101091.50;;;31.40
76713;BMP280;65640;43.154;25.658;2023-09-07T11:03:08;101087.63;;;31.07
76713;BMP280;65640;43.154;25.658;2023-09-07T11:05:37;101089.00;;;31.22
76713;BMP280;65640;43.154;25.658;2023-09-07T11:08:05;101077.53;;;31.08
76713;BMP280;65640;43.154;25.658;2023-09-07T11:10:34;101081.47;;;31.03
76713;BMP280;65640;43.154;25.658;2023-09-07T11:13:04;101072.06;;;31.49
76713;BMP280;65640;43.154;25.658;2023-09-07T11:15:33;101071.66;;;31.77
76713;BMP280;65640;43.154;25.658;2023-09-07T11:18:08;101061.13;;;31.82
76713;BMP280;65640;43.154;25.658;2023-09-07T11:20:37;101064.06;;;31.95
76713;BMP280;65640;43.154;25.658;2023-09-07T11:23:05;101062.41;;;32.01
76713;BMP280;65640;43.154;25.658;2023-09-07T11:25:37;101063.53;;;31.77
76713;BMP280;65640;43.154;25.658;2023-09-07T11:28:04;101053.28;;;31.35
76713;BMP280;65640;43.154;25.658;2023-09-07T11:30:31;101054.50;;;30.96
76713;BMP280;65640;43.154;25.658;2023-09-07T11:33:03;101057.41;;;30.75
76713;BMP280;65640;43.154;25.658;2023-09-07T11:35:29;101061.47;;;30.53
76713;BMP280;65640;43.154;25.658;2023-09-07T11:37:55;101061.22;;;30.37
76713;BMP280;65640;43.154;25.658;2023-09-07T11:40:20;101057.41;;;30.27
76713;BMP280;65640;43.154;25.658;2023-09-07T11:42:45;101052.19;;;30.06
76713;BMP280;65640;43.154;25.658;2023-09-07T11:45:11;101051.47;;;29.95
76713;BMP280;65640;43.154;25.658;2023-09-07T11:47:38;101053.81;;;29.93
76713;BMP280;65640;43.154;25.658;2023-09-07T11:50:05;101052.97;;;30.03
76713;BMP280;65640;43.154;25.658;2023-09-07T11:52:31;101044.03;;;30.61
76713;BMP280;65640;43.154;25.658;2023-09-07T11:54:57;101052.16;;;30.98
76713;BMP280;65640;43.154;25.658;2023-09-07T11:57:22;101045.84;;;31.08
76713;BMP280;65640;43.154;25.658;2023-09-07T11:59:48;101051.53;;;30.84
76713;BMP280;65640;43.154;25.658;2023-09-07T12:02:13;101048.72;;;30.57
76713;BMP280;65640;43.154;25.658;2023-09-07T12:04:40;101043.47;;;30.36
76713;BMP280;65640;43.154;25.658;2023-09-07T12:07:06;101046.66;;;30.20
76713;BMP280;65640;43.154;25.658;2023-09-07T12:09:31;101046.38;;;30.08
76713;BMP280;65640;43.154;25.658;2023-09-07T12:11:57;101042.88;;;30.11
76713;BMP280;65640;43.154;25.658;2023-09-07T12:14:23;101037.41;;;30.18
76713;BMP280;65640;43.154;25.658;2023-09-07T12:16:48;101037.41;;;30.21
76713;BMP280;65640;43.154;25.658;2023-09-07T12:19:14;101038.56;;;30.17
76713;BMP280;65640;43.154;25.658;2023-09-07T12:21:39;101029.00;;;30.12
76713;BMP280;65640;43.154;25.658;2023-09-07T12:24:05;101033.63;;;30.08
76713;BMP280;65640;43.154;25.658;2023-09-07T12:26:31;101033.63;;;30.12
76713;BMP280;65640;43.154;25.658;2023-09-07T12:28:56;101032.84;;;30.08
76713;BMP280;65640;43.154;25.658;2023-09-07T12:31:22;101027.44;;;30.08
76713;BMP280;65640;43.154;25.658;2023-09-07T12:33:47;101022.94;;;29.90
76713;BMP280;65640;43.154;25.658;2023-09-07T12:36:13;101026.88;;;29.75
76713;BMP280;65640;43.154;25.658;2023-09-07T12:38:38;101033.06;;;29.72
76713;BMP280;65640;43.154;25.658;2023-09-07T12:41:04;101025.69;;;29.83
76713;BMP280;65640;43.154;25.658;2023-09-07T12:43:29;101027.25;;;29.77
76713;BMP280;65640;43.154;25.658;2023-09-07T12:45:54;101020.28;;;29.87
76713;BMP280;65640;43.154;25.658;2023-09-07T12:48:20;101017.84;;;29.99
76713;BMP280;65640;43.154;25.658;2023-09-07T12:50:45;101013.91;;;30.59
76713;BMP280;65640;43.154;25.658;2023-09-07T12:53:11;101007.69;;;30.99
76713;BMP280;65640;43.154;25.658;2023-09-07T12:55:36;101023.88;;;30.65
76713;BMP280;65640;43.154;25.658;2023-09-07T12:58:02;101020.31;;;30.35
76713;BMP280;65640;43.154;25.658;2023-09-07T13:00:28;101015.91;;;30.04
76713;BMP280;65640;43.154;25.658;2023-09-07T13:02:54;101019.91;;;29.81
76713;BMP280;65640;43.154;25.658;2023-09-07T13:05:21;101012.97;;;29.77
76713;BMP280;65640;43.154;25.658;2023-09-07T13:07:46;101019.25;;;29.63
76713;BMP280;65640;43.154;25.658;2023-09-07T13:10:12;101016.56;;;29.60
76713;BMP280;65640;43.154;25.658;2023-09-07T13:12:37;101021.56;;;29.61
76713;BMP280;65640;43.154;25.658;2023-09-07T13:15:06;101014.53;;;29.74
76713;BMP280;65640;43.154;25.658;2023-09-07T13:17:32;101010.31;;;30.32
76713;BMP280;65640;43.154;25.658;2023-09-07T13:19:57;101013.00;;;30.69
76713;BMP280;65640;43.154;25.658;2023-09-07T13:22:22;101017.81;;;30.54
76713;BMP280;65640;43.154;25.658;2023-09-07T13:24:48;101012.22;;;30.35
76713;BMP280;65640;43.154;25.658;2023-09-07T13:27:14;101010.75;;;30.20
76713;BMP280;65640;43.154;25.658;2023-09-07T13:29:40;101007.38;;;30.09
76713;BMP280;65640;43.154;25.658;2023-09-07T13:32:05;101003.13;;;30.11
76713;BMP280;65640;43.154;25.658;2023-09-07T13:34:31;101007.84;;;30.44
76713;BMP280;65640;43.154;25.658;2023-09-07T13:36:56;100993.78;;;30.97
76713;BMP280;65640;43.154;25.658;2023-09-07T13:39:22;100999.84;;;31.39
76713;BMP280;65640;43.154;25.658;2023-09-07T13:41:47;100994.34;;;31.46
76713;BMP280;65640;43.154;25.658;2023-09-07T13:44:14;100994.28;;;31.19